createdAt,value
2019-04-25T00:01:38.743Z,34.75
2019-04-25T00:04:12.234Z,34.78
2019-04-25T00:06:44.966Z,34.15
2019-04-25T00:09:21.903Z,33.70
2019-04-25T00:11:54.088Z,33.13
2019-04-25T00:14:25.940Z,33.50
2019-04-25T00:16:57.698Z,33.80
2019-04-25T00:19:29.866Z,32.75
2019-04-25T00:22:09.312Z,30.95
2019-04-25T00:24:54.592Z,30.68
2019-04-25T00:27:27.441Z,30.20
2019-04-25T00:30:01.689Z,31.02
2019-04-25T00:32:34.268Z,29.15
2019-04-25T00:35:06.700Z,29.77
2019-04-25T00:37:38.808Z,28.27
2019-04-25T00:40:11.858Z,29.15
2019-04-25T00:42:44.904Z,28.05
2019-04-25T00:45:16.519Z,28.62
2019-04-25T00:47:48.293Z,29.40
2019-04-25T00:50:19.854Z,29.70
2019-04-25T00:52:53.329Z,30.35
2019-04-25T00:55:28.587Z,30.85
2019-04-25T00:58:01.351Z,30.88
2019-04-25T01:00:35.699Z,30.85
2019-04-25T01:03:09.109Z,31.45
2019-04-25T01:05:42.492Z,33.25
2019-04-25T01:10:46.424Z,30.35
2019-04-25T01:13:18.592Z,29.10
2019-04-25T01:15:52.888Z,28.80
2019-04-25T01:18:25.291Z,29.98
2019-04-25T01:20:57.319Z,29.30
2019-04-25T01:23:29.708Z,29.00
2019-04-25T01:26:01.486Z,26.93
2019-04-25T01:28:33.583Z,27.50
2019-04-25T01:31:08.307Z,27.93
2019-04-25T01:33:40.351Z,28.65
2019-04-25T01:36:13.957Z,30.08
2019-04-25T01:38:56.573Z,29.90
2019-04-25T01:41:35.273Z,29.37
2019-04-25T01:44:14.474Z,30.02
2019-04-25T01:46:46.492Z,30.72
2019-04-25T01:49:18.568Z,30.27
2019-04-25T01:51:50.409Z,28.85
2019-04-25T01:54:23.797Z,29.48
2019-04-25T01:56:56.223Z,31.07
2019-04-25T01:59:28.051Z,30.92
2019-04-25T02:02:00.164Z,28.70
2019-04-25T02:04:31.994Z,28.55
2019-04-25T02:07:05.668Z,30.17
2019-04-25T02:09:37.326Z,30.17
2019-04-25T02:12:15.534Z,28.75
2019-04-25T02:14:47.510Z,28.30
2019-04-25T02:17:19.975Z,26.80
2019-04-25T02:19:52.177Z,27.25
2019-04-25T02:22:24.416Z,27.65
2019-04-25T02:24:57.112Z,27.50
2019-04-25T02:27:29.540Z,26.82
2019-04-25T02:30:01.493Z,27.48
2019-04-25T02:32:37.172Z,28.20
2019-04-25T02:35:10.040Z,31.55
2019-04-25T02:37:41.849Z,30.37
2019-04-25T02:40:15.756Z,30.45
2019-04-25T02:42:47.412Z,29.55
2019-04-25T02:45:24.547Z,29.65
2019-04-25T02:48:01.520Z,29.30
2019-04-25T02:50:35.372Z,32.75
2019-04-25T02:53:13.990Z,30.68
2019-04-25T02:55:45.468Z,30.25
2019-04-25T02:58:17.117Z,29.42
2019-04-25T03:00:57.392Z,29.18
2019-04-25T03:03:24.457Z,31.45
2019-04-25T03:05:57.357Z,33.63
2019-04-25T03:08:29.162Z,33.80
2019-04-25T03:11:01.601Z,30.62
2019-04-25T03:13:34.317Z,27.87
2019-04-25T03:16:09.133Z,28.65
2019-04-25T03:18:44.501Z,33.88
2019-04-25T03:21:17.879Z,36.85
2019-04-25T03:23:50.354Z,35.03
2019-04-25T03:26:23.404Z,35.50
2019-04-25T03:28:55.003Z,34.43
2019-04-25T03:31:27.433Z,35.00
2019-04-25T03:33:59.185Z,34.63
2019-04-25T03:36:30.995Z,37.65
2019-04-25T03:39:03.972Z,35.33
2019-04-25T03:41:36.630Z,35.98
2019-04-25T03:44:08.533Z,36.17
2019-04-25T03:46:40.408Z,35.00
2019-04-25T03:49:13.902Z,32.93
2019-04-25T03:51:47.046Z,33.00
2019-04-25T03:54:18.734Z,34.45
2019-04-25T03:56:54.390Z,33.92
2019-04-25T03:59:25.505Z,33.20
2019-04-25T04:01:57.318Z,31.37
2019-04-25T04:04:29.964Z,31.87
2019-04-25T04:07:01.446Z,31.60
2019-04-25T04:09:33.819Z,32.48
2019-04-25T04:12:06.372Z,31.48
2019-04-25T04:14:38.568Z,32.20
2019-04-25T04:17:16.026Z,31.73
2019-04-25T04:20:01.298Z,30.65
2019-04-25T04:22:53.381Z,31.35
2019-04-25T04:25:25.325Z,32.65
2019-04-25T04:27:57.578Z,33.67
2019-04-25T04:30:29.460Z,31.05
2019-04-25T04:33:01.095Z,30.20
2019-04-25T04:35:33.626Z,31.97
2019-04-25T04:38:05.646Z,32.20
2019-04-25T04:40:37.637Z,32.58
2019-04-25T04:43:09.627Z,29.10
2019-04-25T04:45:43.281Z,31.85
2019-04-25T04:48:15.563Z,34.13
2019-04-25T04:50:47.436Z,33.10
2019-04-25T04:53:19.593Z,36.13
2019-04-25T04:55:51.261Z,34.48
2019-04-25T04:58:24.972Z,34.03
2019-04-25T05:00:56.728Z,34.23
2019-04-25T05:03:39.130Z,32.65
2019-04-25T05:06:28.211Z,34.03
2019-04-25T05:09:01.586Z,32.28
2019-04-25T05:11:34.873Z,33.25
2019-04-25T05:14:06.759Z,33.70
2019-04-25T05:16:38.694Z,31.07
2019-04-25T05:19:11.533Z,30.85
2019-04-25T05:21:45.604Z,32.28
2019-04-25T05:24:17.574Z,32.48
2019-04-25T05:26:49.552Z,32.33
2019-04-25T05:29:23.396Z,31.48
2019-04-25T05:31:54.900Z,33.25
2019-04-25T05:34:26.786Z,30.32
2019-04-25T05:36:58.925Z,31.20
2019-04-25T05:39:30.773Z,30.88
2019-04-25T05:42:04.613Z,30.75
2019-04-25T05:44:37.684Z,30.90
2019-04-25T05:47:09.620Z,29.57
2019-04-25T05:49:41.652Z,26.90
2019-04-25T05:52:14.004Z,23.57
2019-04-25T05:54:45.749Z,21.37
2019-04-25T05:57:18.094Z,22.58
2019-04-25T05:59:49.775Z,22.05
2019-04-25T06:02:21.646Z,22.48
2019-04-25T06:04:53.615Z,22.98
2019-04-25T06:07:26.672Z,22.90
2019-04-25T06:10:17.178Z,22.20
2019-04-25T06:13:07.603Z,22.25
2019-04-25T06:15:39.558Z,22.90
2019-04-25T06:18:14.055Z,23.70
2019-04-25T06:20:45.744Z,22.80
2019-04-25T06:23:19.236Z,24.32
2019-04-25T06:25:51.410Z,23.73
2019-04-25T06:28:25.014Z,23.52
2019-04-25T06:30:57.907Z,24.92
2019-04-25T06:33:30.099Z,26.33
2019-04-25T06:36:04.037Z,23.42
2019-04-25T06:38:35.543Z,24.63
2019-04-25T06:41:07.613Z,24.43
2019-04-25T06:43:40.883Z,26.65
2019-04-25T06:46:31.753Z,25.92
2019-04-25T06:49:14.412Z,25.82
2019-04-25T06:51:50.992Z,26.95
2019-04-25T06:54:25.379Z,27.50
2019-04-25T06:56:56.259Z,29.12
2019-04-25T06:59:30.275Z,27.30
2019-04-25T07:02:01.698Z,26.90
2019-04-25T07:04:34.645Z,27.73
2019-04-25T07:07:12.445Z,28.47
2019-04-25T07:09:40.303Z,27.40
2019-04-25T07:12:13.457Z,31.55
2019-04-25T07:14:45.221Z,33.63
2019-04-25T07:17:17.016Z,35.23
2019-04-25T07:19:49.047Z,37.08
2019-04-25T07:22:21.212Z,35.80
2019-04-25T07:24:53.758Z,35.13
2019-04-25T07:27:44.788Z,34.90
2019-04-25T07:30:31.878Z,35.63
2019-04-25T07:32:57.939Z,36.80
2019-04-25T07:35:30.002Z,35.80
2019-04-25T07:38:01.670Z,35.70
2019-04-25T07:40:35.220Z,35.38
2019-04-25T07:43:07.734Z,35.83
2019-04-25T07:45:40.034Z,35.23
2019-04-25T07:48:11.681Z,34.98
2019-04-25T07:50:43.911Z,35.88
2019-04-25T07:53:16.745Z,37.70
2019-04-25T07:55:48.911Z,36.15
2019-04-25T07:58:20.446Z,36.13
2019-04-25T08:00:53.945Z,35.48
2019-04-25T08:03:25.618Z,36.48
2019-04-25T08:05:57.382Z,36.55
2019-04-25T08:08:29.760Z,36.63
2019-04-25T08:11:05.209Z,35.75
2019-04-25T08:13:55.496Z,34.13
2019-04-25T08:16:30.154Z,33.58
2019-04-25T08:19:03.996Z,29.95
2019-04-25T08:21:36.595Z,30.33
2019-04-25T08:24:08.581Z,29.05
2019-04-25T08:26:40.341Z,31.82
2019-04-25T08:29:13.301Z,34.58
2019-04-25T08:31:45.354Z,33.95
2019-04-25T08:34:17.037Z,33.30
2019-04-25T08:36:49.120Z,32.03
2019-04-25T08:39:20.887Z,30.72
2019-04-25T08:41:53.914Z,30.20
2019-04-25T08:44:26.140Z,30.27
2019-04-25T08:46:58.008Z,29.50
2019-04-25T08:49:34.886Z,29.67
2019-04-25T08:52:07.052Z,26.70
2019-04-25T08:54:44.339Z,27.22
2019-04-25T08:57:15.479Z,24.20
2019-04-25T08:59:52.486Z,24.55
2019-04-25T09:02:24.137Z,25.00
2019-04-25T09:05:15.956Z,27.65
2019-04-25T09:07:47.819Z,25.23
2019-04-25T09:10:19.687Z,24.60
2019-04-25T09:12:51.335Z,26.25
2019-04-25T09:15:24.174Z,26.70
2019-04-25T09:17:56.094Z,25.68
2019-04-25T09:20:27.951Z,24.92
2019-04-25T09:22:59.915Z,26.00
2019-04-25T09:25:33.507Z,24.55
2019-04-25T09:28:05.482Z,26.30
2019-04-25T09:30:38.273Z,27.73
2019-04-25T09:33:10.005Z,25.75
2019-04-25T09:35:41.688Z,25.57
2019-04-25T09:38:13.538Z,25.92
2019-04-25T09:40:46.339Z,25.43
2019-04-25T09:43:18.488Z,25.10
2019-04-25T09:46:07.338Z,25.70
2019-04-25T09:48:41.166Z,24.05
2019-04-25T09:51:14.649Z,24.45
2019-04-25T09:53:51.043Z,24.23
2019-04-25T09:56:24.630Z,24.27
2019-04-25T09:59:00.896Z,24.55
2019-04-25T10:01:33.870Z,24.18
2019-04-25T10:04:05.847Z,24.00
2019-04-25T10:06:37.505Z,22.27
2019-04-25T10:09:10.627Z,20.97
2019-04-25T10:11:43.958Z,22.98
2019-04-25T10:14:24.647Z,25.82
2019-04-25T10:16:56.320Z,23.90
2019-04-25T10:19:28.238Z,23.32
2019-04-25T10:22:00.643Z,24.05
2019-04-25T10:24:32.317Z,23.25
2019-04-25T10:27:04.592Z,25.15
2019-04-25T10:29:44.890Z,24.60
2019-04-25T10:32:13.271Z,24.80
2019-04-25T10:34:46.193Z,24.27
2019-04-25T10:37:17.977Z,23.42
2019-04-25T10:39:50.152Z,23.85
2019-04-25T10:42:21.885Z,24.60
2019-04-25T10:44:54.463Z,23.98
2019-04-25T10:47:27.168Z,23.90
2019-04-25T10:49:59.372Z,23.35
2019-04-25T10:52:31.400Z,23.98
2019-04-25T10:55:04.172Z,25.02
2019-04-25T10:57:36.044Z,24.50
2019-04-25T11:00:13.730Z,24.35
2019-04-25T11:02:46.583Z,24.52
2019-04-25T11:05:19.600Z,23.73
2019-04-25T11:07:55.586Z,25.05
2019-04-25T11:10:26.538Z,24.92
2019-04-25T11:12:58.177Z,23.77
2019-04-25T11:15:30.379Z,24.77
2019-04-25T11:18:02.101Z,23.22
2019-04-25T11:20:34.305Z,24.98
2019-04-25T11:23:05.922Z,24.23
2019-04-25T11:25:37.880Z,24.02
2019-04-25T11:28:11.475Z,24.07
2019-04-25T11:30:46.666Z,24.07
2019-04-25T11:33:18.824Z,22.70
2019-04-25T11:35:50.652Z,23.50
2019-04-25T11:38:27.036Z,23.57
2019-04-25T11:41:03.952Z,22.95
2019-04-25T11:43:35.779Z,23.50
2019-04-25T11:46:07.744Z,24.45
2019-04-25T11:48:39.899Z,23.67
2019-04-25T11:51:13.822Z,23.27
2019-04-25T11:56:17.746Z,22.87
2019-04-25T11:58:50.652Z,22.70
2019-04-25T12:01:24.179Z,24.60
2019-04-25T12:03:57.438Z,24.50
2019-04-25T12:06:29.501Z,23.60
2019-04-25T12:09:01.461Z,23.52
2019-04-25T12:11:35.296Z,23.18
2019-04-25T12:14:07.132Z,23.18
2019-04-25T12:16:39.770Z,22.82
2019-04-25T12:19:11.759Z,22.83
2019-04-25T12:21:44.695Z,22.93
2019-04-25T12:24:17.744Z,22.58
2019-04-25T12:26:49.291Z,23.18
2019-04-25T12:29:21.478Z,23.70
2019-04-25T12:31:54.834Z,22.45
2019-04-25T12:34:26.746Z,23.02
2019-04-25T12:36:58.509Z,22.65
2019-04-25T12:39:30.770Z,21.35
2019-04-25T12:42:04.164Z,21.80
2019-04-25T12:44:54.821Z,21.75
2019-04-25T12:47:28.372Z,22.00
2019-04-25T12:50:00.038Z,21.73
2019-04-25T12:52:33.306Z,21.40
2019-04-25T12:55:06.787Z,21.20
2019-04-25T12:57:38.494Z,21.93
2019-04-25T13:00:10.879Z,21.50
2019-04-25T13:02:44.580Z,21.07
2019-04-25T13:05:16.228Z,21.37
2019-04-25T13:07:47.870Z,21.60
2019-04-25T13:10:19.953Z,21.73
2019-04-25T13:12:55.232Z,20.68
2019-04-25T13:15:27.061Z,20.85
2019-04-25T13:17:59.224Z,21.48
2019-04-25T13:20:31.192Z,21.60
2019-04-25T13:23:04.492Z,20.77
2019-04-25T13:25:36.553Z,20.43
2019-04-25T13:28:26.112Z,20.65
2019-04-25T13:31:04.000Z,21.48
2019-04-25T13:33:37.537Z,20.43
2019-04-25T13:36:16.764Z,21.00
2019-04-25T13:38:48.712Z,20.12
2019-04-25T13:41:20.471Z,20.10
2019-04-25T13:43:54.669Z,20.75
2019-04-25T13:46:27.593Z,20.60
2019-04-25T13:48:59.660Z,21.15
2019-04-25T13:51:33.215Z,20.33
2019-04-25T13:54:05.317Z,20.50
2019-04-25T13:56:40.440Z,21.07
2019-04-25T13:59:10.798Z,22.00
2019-04-25T14:01:44.090Z,21.82
2019-04-25T14:06:47.508Z,21.40
2019-04-25T14:09:21.367Z,22.10
2019-04-25T14:14:26.849Z,21.33
2019-04-25T14:17:17.586Z,21.70
2019-04-25T14:19:58.154Z,21.87
2019-04-25T14:22:30.393Z,23.07
2019-04-25T14:25:03.999Z,22.37
2019-04-25T14:30:08.472Z,22.30
2019-04-25T14:35:11.466Z,23.45
2019-04-25T14:37:44.025Z,23.65
2019-04-25T14:40:16.010Z,23.35
2019-04-25T14:42:47.888Z,23.22
2019-04-25T14:45:21.527Z,22.93
2019-04-25T14:47:53.987Z,22.60
2019-04-25T14:50:26.034Z,23.40
2019-04-25T14:52:58.087Z,24.30
2019-04-25T14:55:37.530Z,24.15
2019-04-25T14:58:14.221Z,24.98
2019-04-25T15:00:48.038Z,24.70
2019-04-25T15:03:19.674Z,26.77
2019-04-25T15:05:51.787Z,25.85
2019-04-25T15:08:24.011Z,27.02
2019-04-25T15:10:56.609Z,26.02
2019-04-25T15:13:28.292Z,25.88
2019-04-25T15:16:00.207Z,27.25
2019-04-25T15:18:40.577Z,27.80
2019-04-25T15:21:07.129Z,29.02
2019-04-25T15:23:38.940Z,28.60
2019-04-25T15:26:10.939Z,28.23
2019-04-25T15:28:44.505Z,26.75
2019-04-25T15:31:16.299Z,26.52
2019-04-25T15:33:48.468Z,26.70
2019-04-25T15:36:40.316Z,27.27
2019-04-25T15:39:31.038Z,30.88
2019-04-25T15:42:06.387Z,30.52
2019-04-25T15:44:57.664Z,30.10
2019-04-25T15:47:31.870Z,28.77
2019-04-25T15:50:04.352Z,27.13
2019-04-25T15:52:36.478Z,27.90
2019-04-25T15:55:08.585Z,29.32
2019-04-25T15:57:40.822Z,29.45
2019-04-25T16:00:17.668Z,30.17
2019-04-25T16:02:49.908Z,29.48
2019-04-25T16:05:21.583Z,28.98
2019-04-25T16:07:53.670Z,29.75
2019-04-25T16:10:25.737Z,30.40
2019-04-25T16:12:57.683Z,29.18
2019-04-25T16:15:29.236Z,31.55
2019-04-25T16:18:01.929Z,36.53
2019-04-25T16:20:35.738Z,40.12
2019-04-25T16:23:08.507Z,38.60
2019-04-25T16:25:41.223Z,34.92
2019-04-25T16:28:13.270Z,33.70
2019-04-25T16:30:44.942Z,32.15
2019-04-25T16:33:16.902Z,37.55
2019-04-25T16:35:48.756Z,35.63
2019-04-25T16:38:20.807Z,35.20
2019-04-25T16:40:52.672Z,43.68
2019-04-25T16:43:25.734Z,56.90
2019-04-25T16:45:57.836Z,59.67
2019-04-25T16:48:29.973Z,56.15
2019-04-25T16:51:01.878Z,38.95
2019-04-25T16:53:33.736Z,36.77
2019-04-25T16:56:05.700Z,38.48
2019-04-25T16:58:38.601Z,38.48
2019-04-25T17:01:12.031Z,39.75
2019-04-25T17:03:44.638Z,51.45
2019-04-25T17:06:16.632Z,60.15
2019-04-25T17:08:48.582Z,50.35
2019-04-25T17:11:21.175Z,38.38
2019-04-25T17:13:54.768Z,30.48
2019-04-25T17:16:34.796Z,30.40
2019-04-25T17:19:08.139Z,25.27
2019-04-25T17:21:39.999Z,22.22
2019-04-25T17:24:11.651Z,24.50
2019-04-25T17:26:43.820Z,24.30
2019-04-25T17:29:17.525Z,28.45
2019-04-25T17:32:00.327Z,27.95
2019-04-25T17:34:43.175Z,29.70
2019-04-25T17:37:16.442Z,29.20
2019-04-25T17:40:02.243Z,30.40
2019-04-25T17:42:35.527Z,34.25
2019-04-25T17:45:09.856Z,33.08
2019-04-25T17:47:52.331Z,35.60
2019-04-25T17:50:15.837Z,37.00
2019-04-25T17:52:47.491Z,31.27
2019-04-25T17:55:19.560Z,30.23
2019-04-25T17:57:51.427Z,30.57
2019-04-25T18:00:25.356Z,29.40
2019-04-25T18:02:58.943Z,27.62
2019-04-25T18:05:30.982Z,25.95
2019-04-25T18:08:03.050Z,28.73
2019-04-25T18:10:35.600Z,28.23
2019-04-25T18:13:09.389Z,29.12
2019-04-25T18:15:45.941Z,27.07
2019-04-25T18:18:19.417Z,29.60
2019-04-25T18:20:51.163Z,30.77
2019-04-25T18:23:24.677Z,29.60
2019-04-25T18:26:13.521Z,28.95
2019-04-25T18:28:49.919Z,27.15
2019-04-25T18:31:24.269Z,30.08
2019-04-25T18:33:58.689Z,29.57
2019-04-25T18:36:41.440Z,28.80
2019-04-25T18:39:21.309Z,28.67
2019-04-25T18:41:54.932Z,27.95
2019-04-25T18:44:27.081Z,27.95
2019-04-25T18:46:59.068Z,29.05
2019-04-25T18:49:31.122Z,30.02
2019-04-25T18:52:04.540Z,31.82
2019-04-25T18:54:38.855Z,31.68
2019-04-25T18:57:12.231Z,29.82
2019-04-25T19:00:01.110Z,29.63
2019-04-25T19:02:39.506Z,28.15
2019-04-25T19:05:22.766Z,28.55
2019-04-25T19:07:54.623Z,26.75
2019-04-25T19:10:26.584Z,28.47
2019-04-25T19:13:11.800Z,28.75
2019-04-25T19:15:31.826Z,30.62
2019-04-25T19:18:03.704Z,31.07
2019-04-25T19:20:35.672Z,31.65
2019-04-25T19:23:07.511Z,33.23
2019-04-25T19:25:40.251Z,31.35
2019-04-25T19:28:12.072Z,32.23
2019-04-25T19:30:45.067Z,32.80
2019-04-25T19:33:17.283Z,31.68
2019-04-25T19:35:48.991Z,32.20
2019-04-25T19:38:21.153Z,32.38
2019-04-25T19:40:54.543Z,30.10
2019-04-25T19:43:41.008Z,30.50
2019-04-25T19:46:12.801Z,32.73
2019-04-25T19:48:44.898Z,30.80
2019-04-25T19:51:16.636Z,29.63
2019-04-25T19:53:49.182Z,32.15
2019-04-25T19:56:20.967Z,32.48
2019-04-25T19:58:52.836Z,33.05
2019-04-25T20:01:25.629Z,34.10
2019-04-25T20:04:08.249Z,34.20
2019-04-25T20:06:42.256Z,34.88
2019-04-25T20:09:34.808Z,35.43
2019-04-25T20:12:06.985Z,41.73
2019-04-25T20:14:38.933Z,41.53
2019-04-25T20:17:11.109Z,41.33
2019-04-25T20:19:43.444Z,39.15
2019-04-25T20:22:16.985Z,37.95
2019-04-25T20:24:48.944Z,38.13
2019-04-25T20:27:20.602Z,37.53
2019-04-25T20:29:52.673Z,39.60
2019-04-25T20:32:24.836Z,41.15
2019-04-25T20:34:56.805Z,39.58
2019-04-25T20:37:28.448Z,41.35
2019-04-25T20:40:00.001Z,40.78
2019-04-25T20:42:31.988Z,40.85
2019-04-25T20:45:06.611Z,40.88
2019-04-25T20:47:38.480Z,40.78
2019-04-25T20:50:11.752Z,40.63
2019-04-25T20:52:43.514Z,40.90
2019-04-25T20:55:15.686Z,43.92
2019-04-25T20:57:48.410Z,44.35
2019-04-25T21:00:40.037Z,45.95
2019-04-25T21:03:12.376Z,44.95
2019-04-25T21:05:44.973Z,47.75
2019-04-25T21:08:17.651Z,47.33
2019-04-25T21:10:50.587Z,46.42
2019-04-25T21:13:24.248Z,46.25
2019-04-25T21:16:00.797Z,46.15
2019-04-25T21:18:37.370Z,45.65
2019-04-25T21:21:09.135Z,46.90
2019-04-25T21:23:41.325Z,44.93
2019-04-25T21:26:13.071Z,45.43
2019-04-25T21:28:45.040Z,40.92
2019-04-25T21:31:52.956Z,43.42
2019-04-25T21:34:30.918Z,41.10
2019-04-25T21:37:02.404Z,41.73
2019-04-25T21:39:37.140Z,43.08
2019-04-25T21:42:12.177Z,40.88
2019-04-25T21:44:44.181Z,40.55
2019-04-25T21:47:16.105Z,39.48
2019-04-25T21:49:47.966Z,38.78
2019-04-25T21:52:19.911Z,38.88
2019-04-25T21:54:51.781Z,39.53
2019-04-25T21:57:24.785Z,41.58
2019-04-25T22:00:03.138Z,49.35
2019-04-25T22:02:30.746Z,51.53
2019-04-25T22:05:02.844Z,55.73
2019-04-25T22:07:35.511Z,57.10
2019-04-25T22:10:09.612Z,59.15
2019-04-25T22:12:41.279Z,55.12
2019-04-25T22:15:13.555Z,55.98
2019-04-25T22:17:45.701Z,53.23
2019-04-25T22:20:17.582Z,51.73
2019-04-25T22:22:49.654Z,52.23
2019-04-25T22:25:21.717Z,52.50
2019-04-25T22:27:54.087Z,53.20
2019-04-25T22:30:25.849Z,55.15
2019-04-25T22:33:16.148Z,52.05
2019-04-25T22:35:49.375Z,53.50
2019-04-25T22:38:21.460Z,52.50
2019-04-25T22:40:53.602Z,53.87
2019-04-25T22:43:25.778Z,50.80
2019-04-25T22:45:58.231Z,51.40
2019-04-25T22:48:48.852Z,50.63
2019-04-25T22:51:20.690Z,51.33
2019-04-25T22:53:52.858Z,52.33
2019-04-25T22:56:24.570Z,48.50
2019-04-25T22:58:56.681Z,47.98
2019-04-25T23:01:32.873Z,46.90
2019-04-25T23:04:06.455Z,46.55
2019-04-25T23:06:40.266Z,43.92
2019-04-25T23:09:12.385Z,44.48
2019-04-25T23:11:45.400Z,45.43
2019-04-25T23:14:17.405Z,46.10
2019-04-25T23:16:49.656Z,42.88
2019-04-25T23:19:21.295Z,43.08
2019-04-25T23:21:53.365Z,42.90
2019-04-25T23:24:27.678Z,45.98
2019-04-25T23:27:14.336Z,48.20
2019-04-25T23:29:46.244Z,46.80
2019-04-25T23:32:18.327Z,46.00
2019-04-25T23:34:50.296Z,48.55
2019-04-25T23:37:22.055Z,45.00
2019-04-25T23:39:54.226Z,45.10
2019-04-25T23:42:25.988Z,44.40
2019-04-25T23:44:58.077Z,42.60
2019-04-25T23:47:29.748Z,43.92
2019-04-25T23:50:02.169Z,41.53
2019-04-25T23:52:34.363Z,42.17
2019-04-25T23:55:06.764Z,41.80
2019-04-25T23:57:39.723Z,42.40
